sensor_id;sensor_type;location;lat;lon;timestamp;temperature;humidity
72646;DHT22;60687;53.876;10.674;2022-07-22T00:07:29;19.60;81.30
72646;DHT22;60687;53.876;10.674;2022-07-22T00:17:33;19.60;81.20
72646;DHT22;60687;53.876;10.674;2022-07-22T00:27:41;19.50;80.70
72646;DHT22;60687;53.876;10.674;2022-07-22T00:38:03;19.60;80.80
72646;DHT22;60687;53.876;10.674;2022-07-22T00:48:07;19.50;81.20
72646;DHT22;60687;53.876;10.674;2022-07-22T00:58:17;19.50;80.80
72646;DHT22;60687;53.876;10.674;2022-07-22T01:08:23;19.50;81.70
72646;DHT22;60687;53.876;10.674;2022-07-22T01:18:27;19.50;81.10
72646;DHT22;60687;53.876;10.674;2022-07-22T01:28:30;19.50;80.60
72646;DHT22;60687;53.876;10.674;2022-07-22T01:38:38;19.50;81.80
72646;DHT22;60687;53.876;10.674;2022-07-22T01:59:59;19.10;83.30
72646;DHT22;60687;53.876;10.674;2022-07-22T02:10:05;18.90;83.10
72646;DHT22;60687;53.876;10.674;2022-07-22T02:20:14;18.70;83.20
72646;DHT22;60687;53.876;10.674;2022-07-22T02:30:24;18.60;82.60
72646;DHT22;60687;53.876;10.674;2022-07-22T02:40:33;18.20;81.10
72646;DHT22;60687;53.876;10.674;2022-07-22T02:50:37;17.90;81.30
72646;DHT22;60687;53.876;10.674;2022-07-22T03:00:40;17.60;80.70
72646;DHT22;60687;53.876;10.674;2022-07-22T03:10:43;17.40;81.20
72646;DHT22;60687;53.876;10.674;2022-07-22T03:20:46;17.10;81.20
72646;DHT22;60687;53.876;10.674;2022-07-22T03:30:51;17.10;80.80
72646;DHT22;60687;53.876;10.674;2022-07-22T03:40:54;16.90;80.80
72646;DHT22;60687;53.876;10.674;2022-07-22T03:50:57;16.90;80.80
72646;DHT22;60687;53.876;10.674;2022-07-22T04:01:00;16.80;81.20
72646;DHT22;60687;53.876;10.674;2022-07-22T04:11:06;16.70;81.00
72646;DHT22;60687;53.876;10.674;2022-07-22T04:21:10;16.70;81.40
72646;DHT22;60687;53.876;10.674;2022-07-22T04:31:14;16.60;81.10
72646;DHT22;60687;53.876;10.674;2022-07-22T04:41:19;16.70;81.90
72646;DHT22;60687;53.876;10.674;2022-07-22T04:51:21;16.70;81.00
72646;DHT22;60687;53.876;10.674;2022-07-22T05:01:32;16.70;81.70
72646;DHT22;60687;53.876;10.674;2022-07-22T05:11:42;16.80;81.60
72646;DHT22;60687;53.876;10.674;2022-07-22T05:21:51;16.90;80.90
72646;DHT22;60687;53.876;10.674;2022-07-22T05:32:00;16.90;80.80
72646;DHT22;60687;53.876;10.674;2022-07-22T05:42:08;17.00;81.10
72646;DHT22;60687;53.876;10.674;2022-07-22T05:52:18;17.10;81.20
72646;DHT22;60687;53.876;10.674;2022-07-22T06:02:37;17.20;80.60
72646;DHT22;60687;53.876;10.674;2022-07-22T06:12:45;17.30;80.30
72646;DHT22;60687;53.876;10.674;2022-07-22T06:23:11;17.40;80.00
72646;DHT22;60687;53.876;10.674;2022-07-22T06:33:22;17.40;80.00
72646;DHT22;60687;53.876;10.674;2022-07-22T07:27:57;17.90;77.50
72646;DHT22;60687;53.876;10.674;2022-07-22T07:49:01;18.00;77.30
72646;DHT22;60687;53.876;10.674;2022-07-22T07:59:10;18.10;75.70
72646;DHT22;60687;53.876;10.674;2022-07-22T08:42:18;18.40;73.40
72646;DHT22;60687;53.876;10.674;2022-07-22T09:25:47;19.10;70.10
72646;DHT22;60687;53.876;10.674;2022-07-22T09:36:00;19.10;68.80
72646;DHT22;60687;53.876;10.674;2022-07-22T09:57:32;19.50;66.20
72646;DHT22;60687;53.876;10.674;2022-07-22T10:18:13;19.10;66.10
72646;DHT22;60687;53.876;10.674;2022-07-22T10:28:55;19.30;65.90
72646;DHT22;60687;53.876;10.674;2022-07-22T10:51:20;19.50;63.20
72646;DHT22;60687;53.876;10.674;2022-07-22T11:23:49;20.00;59.40
72646;DHT22;60687;53.876;10.674;2022-07-22T11:34:07;20.40;58.50
72646;DHT22;60687;53.876;10.674;2022-07-22T11:44:32;20.60;56.10
72646;DHT22;60687;53.876;10.674;2022-07-22T11:54:39;20.50;58.40
72646;DHT22;60687;53.876;10.674;2022-07-22T12:04:46;20.30;58.00
72646;DHT22;60687;53.876;10.674;2022-07-22T12:15:10;20.50;54.80
72646;DHT22;60687;53.876;10.674;2022-07-22T12:35:24;20.60;57.40
72646;DHT22;60687;53.876;10.674;2022-07-22T12:45:37;20.80;57.00
72646;DHT22;60687;53.876;10.674;2022-07-22T12:55:48;20.60;55.60
72646;DHT22;60687;53.876;10.674;2022-07-22T13:05:53;20.50;56.60
72646;DHT22;60687;53.876;10.674;2022-07-22T13:15:57;20.60;54.70
72646;DHT22;60687;53.876;10.674;2022-07-22T13:25:59;20.80;55.00
72646;DHT22;60687;53.876;10.674;2022-07-22T13:46:32;20.90;53.20
72646;DHT22;60687;53.876;10.674;2022-07-22T13:57:10;20.90;53.60
72646;DHT22;60687;53.876;10.674;2022-07-22T14:07:21;20.60;54.90
72646;DHT22;60687;53.876;10.674;2022-07-22T14:17:40;20.60;54.70
72646;DHT22;60687;53.876;10.674;2022-07-22T14:28:00;20.60;55.00
72646;DHT22;60687;53.876;10.674;2022-07-22T14:48:55;20.60;53.80
72646;DHT22;60687;53.876;10.674;2022-07-22T15:10:24;20.50;55.30
72646;DHT22;60687;53.876;10.674;2022-07-22T15:20:26;20.50;54.50
72646;DHT22;60687;53.876;10.674;2022-07-22T20:13:08;17.30;61.30
72646;DHT22;60687;53.876;10.674;2022-07-22T20:23:11;17.30;61.80
72646;DHT22;60687;53.876;10.674;2022-07-22T20:33:14;17.20;61.80
72646;DHT22;60687;53.876;10.674;2022-07-22T20:54:17;17.10;62.40
72646;DHT22;60687;53.876;10.674;2022-07-22T21:04:19;17.10;62.60
72646;DHT22;60687;53.876;10.674;2022-07-22T21:14:24;17.00;63.00
72646;DHT22;60687;53.876;10.674;2022-07-22T21:24:30;17.00;62.90
72646;DHT22;60687;53.876;10.674;2022-07-22T21:34:33;17.00;63.20
72646;DHT22;60687;53.876;10.674;2022-07-22T21:44:35;16.90;63.00
72646;DHT22;60687;53.876;10.674;2022-07-22T21:54:39;16.90;64.20
72646;DHT22;60687;53.876;10.674;2022-07-22T22:04:41;16.90;63.70
72646;DHT22;60687;53.876;10.674;2022-07-22T22:14:45;16.90;64.00
72646;DHT22;60687;53.876;10.674;2022-07-22T22:24:47;16.80;64.30
72646;DHT22;60687;53.876;10.674;2022-07-22T22:34:51;16.70;64.70
72646;DHT22;60687;53.876;10.674;2022-07-22T22:44:53;16.60;65.20
72646;DHT22;60687;53.876;10.674;2022-07-22T22:54:56;16.60;65.20
72646;DHT22;60687;53.876;10.674;2022-07-22T23:04:58;16.70;65.40
72646;DHT22;60687;53.876;10.674;2022-07-22T23:15:02;16.60;65.30
72646;DHT22;60687;53.876;10.674;2022-07-22T23:35:16;16.60;65.70
72646;DHT22;60687;53.876;10.674;2022-07-22T23:55:30;16.50;65.90
